Skydive Austral Airstrip

MU-0002 · Rivière du Rempart, Maurice (pays)

METAR anciennes MU-0002 · Skydive Austral Airstrip

Tu vois ci-dessous les METAR des derniers jours. Sélectionne une année pour parcourir les METAR plus anciens, à partir de l'année 2007.

20 juillet 2024

Temps Code Temps Temp. Vue Base cloud Vent METAR/SPECI
06:00
V
19 °C 10 km+ - 310° 310° 4 kt METAR FIMP 200200Z 31004KT 9999 VCSH SCT016 19/17 Q1018
05:00
V
19 °C 10 km+ - 320° 320° 3 kt METAR FIMP 200100Z 32003KT 9999 SCT017 19/16 Q1018
04:00
V
19 °C 10 km+ - 330° 330° 3 kt METAR FIMP 200000Z 33003KT 9999 SCT017 19/17 Q1018
03:00
V
19 °C 10 km+ - 320° 320° 3 kt METAR FIMP 192300Z 32003KT 9999 SCT018 19/17 Q1018
02:00
V
19 °C 10 km+ - 330° 330° 3 kt METAR FIMP 192200Z 33003KT 9999 SCT017 19/18 Q1019
01:00
V
18 °C 10 km+ - 330° 330° 6 kt METAR FIMP 192100Z 33006KT 9999 SCT016 SCT050 18/17 Q1019
00:00
V
18 °C 10 km+ - 330° 330° 5 kt METAR FIMP 192000Z 33005KT 9999 SCT017 SCT050 18/17 Q1019

19 juillet 2024

Temps Code Temps Temp. Vue Base cloud Vent METAR/SPECI
23:00
V
19 °C 10 km+ - 330° 330° 5 kt METAR FIMP 191900Z 33005KT 9999 FEW018 SCT050 19/17 Q1019
22:00
V
20 °C 10 km+ - 330° 330° 3 kt METAR FIMP 191800Z 33003KT 9999 FEW018 SCT050 20/17 Q1019
21:00
V
20 °C 10 km+ - 330° 330° 4 kt METAR FIMP 191700Z 33004KT 9999 FEW018 SCT050 20/17 Q1019
20:00
V
20 °C 10 km+ - 330° 330° 3 kt METAR FIMP 191600Z 33003KT 9999 FEW018 20/18 Q1019
19:00
V
22 °C 10 km+ - 360° 360° 0 kt METAR FIMP 191500Z 00000KT 9999 FEW017 SCT100 22/19 Q1018
18:00
V
23 °C 10 km+ - 360° 360° 0 kt METAR FIMP 191400Z 00000KT 9999 FEW017 23/18 Q1018
17:00
V
24 °C 10 km+ - 100° 100° 3 kt METAR FIMP 191300Z 10003KT 9999 VCSH SCT016 24/19 Q1018
16:00
V
24 °C 10 km+ - 150° 150° 3 kt METAR FIMP 191200Z 15003KT 9999 VCSH SCT016 24/19 Q1017
15:00
V
24 °C 10 km+ - 160° 160° 5 kt METAR FIMP 191100Z 16005KT 9999 VCSH SCT016 24/19 Q1017
14:00
V
24 °C 8 km - 170° 170° 5 kt METAR FIMP 191000Z 17005KT 8000 VCSH FEW008 SCT016 24/18 Q1017
13:00
V
24 °C 8 km - 170° 170° 8 kt METAR FIMP 190900Z 17008KT 8000 VCSH FEW008 SCT016 24/19 Q1018
12:00
V
24 °C 8 km - 140° 140° 8 kt METAR FIMP 190800Z 14008KT 8000 VCSH FEW008 SCT016 24/19 Q1019
11:00
V
23 °C 8 km - 140° 140° 8 kt METAR FIMP 190700Z 14008KT 8000 VCSH FEW008 SCT016 23/19 Q1020
10:00
V
23 °C 10 km+ - 150° 150° 7 kt METAR FIMP 190600Z 15007KT 9999 VCSH FEW008 SCT016 23/20 Q1020
09:00
V
22 °C 10 km+ - 150° 150° 6 kt METAR FIMP 190500Z 15006KT 9999 VCSH FEW010 SCT016 22/20 Q1020
08:00
V
22 °C 10 km+ - 150° 150° 3 kt METAR FIMP 190400Z 15003KT 9999 VCSH FEW010 SCT016 22/19 Q1020
07:00
V
21 °C 8 km - 150° 150° 5 kt METAR FIMP 190300Z 15005KT 8000 VCSH FEW010 SCT016 21/19 Q1019
06:00
M
19 °C 10 km+ 1.600 ft 130° 130° 3 kt METAR FIMP 190200Z 13003KT 9999 VCSH BKN016 SCT050 19/18 Q1019
05:00
M
19 °C 8 km 1.600 ft 320° 320° 3 kt METAR FIMP 190100Z 32003KT 8000 -SHRA BKN016 SCT050 19/18 Q1019
04:00
M
18 °C 10 km+ 1.600 ft 320° 320° 5 kt METAR FIMP 190000Z 32005KT 9999 VCSH BKN016 SCT050 18/18 Q1019
03:00
M
19 °C 10 km+ 1.600 ft 320° 320° 3 kt METAR FIMP 182300Z 32003KT 9999 VCSH BKN016 19/18 Q1019
02:00
M
19 °C 10 km+ 1.600 ft 300° 300° 3 kt METAR FIMP 182200Z 30003KT 9999 VCSH BKN016 SCT050 19/17 Q1020
01:00
V
18 °C 10 km+ - 360° 360° 0 kt METAR FIMP 182100Z 00000KT 9999 SCT017 18/16 Q1020
00:00
V
18 °C 10 km+ - 320° 320° 6 kt METAR FIMP 182000Z 32006KT 9999 SCT017 18/16 Q1021

18 juillet 2024

Temps Code Temps Temp. Vue Base cloud Vent METAR/SPECI
23:00
V
18 °C 10 km+ - 310° 310° 3 kt METAR FIMP 181900Z 31003KT 9999 SCT017 18/16 Q1021
22:00
V
19 °C 10 km+ - 320° 320° 3 kt METAR FIMP 181800Z 32003KT 9999 VCSH SCT017 19/16 Q1021
21:00
V
20 °C 10 km+ - 360° 360° 0 kt METAR FIMP 181700Z 00000KT 9999 SCT018 20/17 Q1021
20:00
V
21 °C 10 km+ - 360° 360° 0 kt METAR FIMP 181600Z 00000KT 9999 FEW019 21/17 Q1021
19:00
V
22 °C 10 km+ - Var Var 1 kt METAR FIMP 181500Z VRB01KT 9999 FEW020 22/17 Q1021
18:00
V
22 °C 10 km+ - 140° 140° 3 kt METAR FIMP 181400Z 14003KT 9999 FEW020 22/17 Q1020
17:00
V
23 °C 10 km+ - 140° 140° 4 kt METAR FIMP 181300Z 14004KT 9999 SCT020 23/17 Q1020
16:00
V
24 °C 10 km+ - 130° 130° 4 kt METAR FIMP 181200Z 13004KT 9999 FEW020 24/18 Q1020
15:00
V
25 °C 10 km+ - 160° 160° 5 kt METAR FIMP 181100Z 16005KT 9999 FEW020 25/17 Q1020
14:00
V
25 °C 10 km+ - 160° 160° 6 kt METAR FIMP 181000Z 16006KT 9999 SCT019 25/17 Q1020
13:00
V
25 °C 10 km+ - 130° 130° 7 kt METAR FIMP 180900Z 13007KT 9999 SCT018 25/17 Q1021
12:00
V
24 °C 10 km+ - 140° 140° 6 kt METAR FIMP 180800Z 14006KT 9999 SCT018 24/17 Q1022
11:00
V
25 °C 10 km+ - 120° 120° 6 kt METAR FIMP 180700Z 12006KT 9999 SCT018 25/16 Q1022
10:00
V
24 °C 10 km+ - 120° 120° 3 kt METAR FIMP 180600Z 12003KT 9999 SCT018 24/17 Q1023
09:00
V
23 °C 10 km+ - 360° 360° 0 kt METAR FIMP 180500Z 00000KT 9999 FEW018 23/18 Q1023
08:00
V
19 °C 10 km+ - 330° 330° 5 kt METAR FIMP 180400Z 33005KT 9999 SCT018 19/16 Q1023
07:00
V
17 °C 10 km+ - 320° 320° 5 kt METAR FIMP 180300Z 32005KT 9999 FEW018 17/15 Q1022
06:00
V
18 °C 10 km+ - 310° 310° 3 kt METAR FIMP 180200Z 31003KT 9999 FEW018 18/16 Q1022
05:00
V
20 °C 10 km+ - 320° 320° 5 kt METAR FIMP 180100Z 32005KT 9999 FEW018 20/16 Q1022
04:00
V
20 °C 10 km+ - 070° 070° 3 kt METAR FIMP 180000Z 07003KT 9999 FEW018 20/16 Q1022
03:00
V
21 °C 10 km+ - 080° 080° 4 kt METAR FIMP 172300Z 08004KT 9999 SCT018 21/17 Q1022
02:00
V
21 °C 10 km+ - 090° 090° 5 kt METAR FIMP 172200Z 09005KT 9999 SCT018 21/17 Q1022
01:00
M
21 °C 10 km+ 1.800 ft 100° 100° 10 kt METAR FIMP 172100Z 10010KT 9999 BKN018 21/17 Q1023
00:00
V
21 °C 10 km+ - 090° 090° 7 kt METAR FIMP 172000Z 09007KT 9999 SCT018 21/16 Q1023

17 juillet 2024

Temps Code Temps Temp. Vue Base cloud Vent METAR/SPECI
23:00
V
21 °C 10 km+ - 080° 080° 6 kt METAR FIMP 171900Z 08006KT 9999 SCT018 21/16 Q1023
22:00
V
21 °C 10 km+ - 080° 080° 6 kt METAR FIMP 171800Z 08006KT 9999 SCT018 21/17 Q1024
21:00
V
22 °C 10 km+ - 080° 080° 9 kt METAR FIMP 171700Z 08009KT 9999 SCT018 22/17 Q1023
20:00
V
22 °C 10 km+ - 070° 070° 8 kt METAR FIMP 171600Z 07008KT 9999 SCT018 22/17 Q1023
19:00
V
22 °C 10 km+ - 080° 080° 7 kt METAR FIMP 171500Z 08007KT 9999 SCT018 22/17 Q1022
18:00
V
22 °C 10 km+ - 080° 080° 7 kt METAR FIMP 171400Z 08007KT 9999 FEW018 22/15 Q1022
17:00
V
23 °C 10 km+ - 070° 070° 9 kt METAR FIMP 171300Z 07009KT 9999 FEW018 23/16 Q1022
16:00
V
25 °C 10 km+ - 080° 080° 13 kt METAR FIMP 171200Z 08013KT 9999 SCT016 SCT050 25/17 Q1022
15:00
V
25 °C 10 km+ - 090° 090° 12 kt METAR FIMP 171100Z 09012KT 9999 SCT017 SCT050 25/16 Q1021
14:00
V
25 °C 10 km+ 5.000 ft 070° 070° 10 kt METAR FIMP 171000Z 07010KT 9999 SCT017 BKN050 25/17 Q1021
13:00
V
24 °C 10 km+ 5.000 ft 080° 080° 13 kt METAR FIMP 170900Z 08013KT 9999 SCT017 BKN050 24/17 Q1022
12:00
V
24 °C 10 km+ - 060° 060° 13 kt METAR FIMP 170800Z 06013KT 9999 SCT016 SCT050 24/16 Q1022
11:00
V
24 °C 10 km+ 5.000 ft 050° 050° 11 kt METAR FIMP 170700Z 05011KT 9999 VCSH SCT016 BKN050 24/19 Q1023
10:00
V
23 °C 8 km 5.000 ft 070° 070° 13 kt METAR FIMP 170600Z 07013KT 8000 VCSH FEW010 SCT015 BKN050 23/19 Q1023
Signaler les modifications